createdAt,value
2023-03-29T00:01:02.616Z,45.70
2023-03-29T00:03:09.477Z,48.00
2023-03-29T00:05:13.393Z,42.10
2023-03-29T00:07:20.683Z,49.00
2023-03-29T00:09:26.675Z,32.60
2023-03-29T00:11:31.360Z,26.80
2023-03-29T00:13:35.117Z,29.30
2023-03-29T00:15:42.877Z,40.10
2023-03-29T00:17:47.598Z,40.30
2023-03-29T00:19:53.051Z,28.80
2023-03-29T00:21:56.196Z,32.80
2023-03-29T00:24:01.456Z,30.70
2023-03-29T00:26:07.168Z,26.60
2023-03-29T00:28:10.512Z,26.00
2023-03-29T00:30:15.037Z,35.90
2023-03-29T00:32:20.851Z,33.50
2023-03-29T00:34:25.894Z,26.60
2023-03-29T00:36:33.403Z,29.00
2023-03-29T00:38:38.842Z,23.60
2023-03-29T00:40:47.125Z,26.50
2023-03-29T00:42:50.244Z,29.40
2023-03-29T00:45:07.836Z,19.10
2023-03-29T00:47:11.979Z,26.50
2023-03-29T00:49:15.614Z,28.10
2023-03-29T00:51:24.910Z,27.90
2023-03-29T00:53:36.834Z,24.30
2023-03-29T00:55:54.473Z,24.60
2023-03-29T00:58:01.016Z,20.90
2023-03-29T01:00:10.523Z,34.00
2023-03-29T01:02:16.630Z,29.70
2023-03-29T01:04:34.001Z,34.10
2023-03-29T01:06:44.376Z,25.70
2023-03-29T01:08:53.337Z,25.30
2023-03-29T01:11:15.999Z,25.30
2023-03-29T01:13:27.488Z,22.60
2023-03-29T01:15:32.125Z,26.10
2023-03-29T01:17:35.813Z,27.80
2023-03-29T01:19:48.620Z,20.10
2023-03-29T01:22:07.461Z,26.20
2023-03-29T01:24:13.373Z,24.60
2023-03-29T01:26:31.733Z,26.50
2023-03-29T01:28:48.373Z,24.40
2023-03-29T01:30:57.398Z,27.50
2023-03-29T01:33:24.033Z,24.70
2023-03-29T01:35:49.558Z,20.60
2023-03-29T01:38:14.444Z,24.90
2023-03-29T01:40:24.458Z,21.90
2023-03-29T01:42:42.374Z,22.10
2023-03-29T01:45:32.005Z,23.60
2023-03-29T01:47:54.738Z,28.90
2023-03-29T01:50:17.993Z,24.70
2023-03-29T01:52:32.176Z,24.30
2023-03-29T01:54:54.949Z,22.30
2023-03-29T01:56:59.328Z,23.60
2023-03-29T01:59:13.154Z,29.60
2023-03-29T02:01:24.244Z,26.80
2023-03-29T02:03:42.723Z,21.70
2023-03-29T02:05:47.731Z,24.80
2023-03-29T02:07:54.768Z,27.40
2023-03-29T02:09:59.516Z,21.70
2023-03-29T02:12:06.784Z,21.70
2023-03-29T02:14:12.614Z,26.70
2023-03-29T02:16:16.720Z,25.50
2023-03-29T02:18:20.169Z,26.80
2023-03-29T02:20:33.694Z,22.40
2023-03-29T02:22:45.801Z,30.10
2023-03-29T02:24:59.060Z,25.50
2023-03-29T02:27:03.909Z,25.30
2023-03-29T02:29:08.980Z,26.00
2023-03-29T02:31:29.498Z,24.00
2023-03-29T02:33:45.713Z,24.60
2023-03-29T02:36:13.464Z,21.00
2023-03-29T02:38:17.791Z,25.20
2023-03-29T02:40:26.138Z,23.40
2023-03-29T02:42:33.318Z,24.70
2023-03-29T02:44:41.710Z,19.90
2023-03-29T02:46:51.061Z,27.90
2023-03-29T02:48:57.640Z,23.90
2023-03-29T02:51:03.316Z,23.30
2023-03-29T02:53:13.064Z,25.50
2023-03-29T02:55:23.192Z,25.10
2023-03-29T02:57:30.944Z,22.90
2023-03-29T02:59:35.455Z,25.50
2023-03-29T03:01:43.082Z,24.60
2023-03-29T03:03:47.863Z,24.00
2023-03-29T03:05:52.459Z,24.20
2023-03-29T03:07:59.020Z,29.90
2023-03-29T03:10:03.864Z,32.10
2023-03-29T03:12:09.551Z,34.70
2023-03-29T03:14:13.665Z,27.60
2023-03-29T03:16:20.332Z,22.20
2023-03-29T03:18:24.352Z,28.00
2023-03-29T03:20:31.344Z,30.20
2023-03-29T03:22:35.684Z,28.50
2023-03-29T03:24:40.504Z,35.40
2023-03-29T03:26:46.382Z,37.40
2023-03-29T03:28:51.134Z,45.60
2023-03-29T03:31:17.595Z,60.30
2023-03-29T03:33:42.484Z,48.50
2023-03-29T03:35:46.723Z,51.90
2023-03-29T03:37:51.722Z,46.20
2023-03-29T03:40:00.817Z,39.40
2023-03-29T03:42:08.580Z,43.90
2023-03-29T03:44:16.574Z,37.80
2023-03-29T03:46:20.458Z,36.80
2023-03-29T03:48:25.507Z,40.80
2023-03-29T03:50:55.297Z,27.40
2023-03-29T03:52:58.909Z,32.10
2023-03-29T03:55:07.518Z,30.90
2023-03-29T03:57:33.377Z,28.70
2023-03-29T03:59:37.156Z,27.10
2023-03-29T04:01:44.953Z,31.10
2023-03-29T04:03:52.079Z,29.90
2023-03-29T04:05:56.603Z,34.80
2023-03-29T04:08:00.774Z,27.70
2023-03-29T04:10:22.720Z,34.00
2023-03-29T04:12:47.667Z,31.80
2023-03-29T04:14:50.843Z,35.30
2023-03-29T04:16:59.067Z,24.80
2023-03-29T04:19:20.224Z,29.40
2023-03-29T04:21:24.098Z,34.10
2023-03-29T04:23:26.782Z,30.60
2023-03-29T04:25:30.945Z,35.90
2023-03-29T04:28:13.520Z,41.10
2023-03-29T04:30:27.818Z,38.20
2023-03-29T04:32:54.517Z,40.50
2023-03-29T04:35:02.660Z,37.20
2023-03-29T04:37:10.885Z,32.20
2023-03-29T04:39:14.867Z,33.00
2023-03-29T04:41:28.925Z,40.50
2023-03-29T04:43:56.184Z,32.60
2023-03-29T04:46:04.460Z,36.80
2023-03-29T04:48:37.454Z,31.50
2023-03-29T04:50:47.524Z,44.30
2023-03-29T04:52:53.075Z,41.50
2023-03-29T04:54:56.565Z,53.00
2023-03-29T04:57:09.728Z,50.90
2023-03-29T04:59:15.474Z,53.30
2023-03-29T05:01:18.208Z,53.90
2023-03-29T05:03:31.300Z,38.30
2023-03-29T05:05:44.021Z,40.90
2023-03-29T05:07:47.064Z,47.50
2023-03-29T05:09:51.532Z,48.60
2023-03-29T05:11:56.765Z,34.30
2023-03-29T05:14:03.521Z,49.30
2023-03-29T05:16:11.266Z,42.40
2023-03-29T05:18:15.323Z,42.30
2023-03-29T05:20:19.880Z,46.40
2023-03-29T05:22:23.545Z,46.80
2023-03-29T05:24:30.001Z,37.60
2023-03-29T05:26:41.527Z,36.80
2023-03-29T05:28:45.024Z,51.70
2023-03-29T05:30:48.804Z,54.70
2023-03-29T05:33:07.779Z,52.20
2023-03-29T05:35:13.475Z,47.60
2023-03-29T05:37:16.464Z,46.30
2023-03-29T05:39:37.142Z,42.60
2023-03-29T05:41:43.351Z,45.60
2023-03-29T05:44:12.953Z,47.60
2023-03-29T05:46:19.784Z,36.00
2023-03-29T05:48:28.590Z,40.70
2023-03-29T05:50:31.997Z,34.00
2023-03-29T05:52:37.735Z,43.10
2023-03-29T05:54:43.312Z,44.80
2023-03-29T05:56:48.441Z,56.80
2023-03-29T05:58:54.942Z,46.60
2023-03-29T06:01:01.122Z,41.50
2023-03-29T06:03:36.926Z,54.00
2023-03-29T06:05:42.754Z,64.30
2023-03-29T06:07:47.076Z,48.60
2023-03-29T06:10:09.727Z,42.10
2023-03-29T06:12:14.042Z,44.90
2023-03-29T06:14:30.286Z,37.30
2023-03-29T06:17:03.767Z,39.20
2023-03-29T06:19:07.806Z,40.90
2023-03-29T06:21:11.376Z,35.50
2023-03-29T06:23:16.274Z,39.20
2023-03-29T06:25:23.916Z,53.50
2023-03-29T06:27:33.072Z,46.80
2023-03-29T06:29:35.913Z,52.20
2023-03-29T06:31:42.209Z,45.10
2023-03-29T06:33:47.815Z,42.00
2023-03-29T06:36:08.663Z,43.70
2023-03-29T06:38:13.839Z,43.40
2023-03-29T06:40:45.519Z,38.60
2023-03-29T06:42:58.278Z,41.80
2023-03-29T06:45:34.703Z,38.60
2023-03-29T06:47:40.748Z,34.70
2023-03-29T06:49:46.209Z,38.30
2023-03-29T06:52:24.776Z,41.80
2023-03-29T06:54:27.450Z,42.10
2023-03-29T06:56:38.205Z,34.60
2023-03-29T06:58:45.161Z,35.20
2023-03-29T07:01:08.271Z,31.20
2023-03-29T07:03:36.497Z,30.10
2023-03-29T07:05:42.443Z,33.90
2023-03-29T07:07:57.238Z,33.40
2023-03-29T07:10:07.371Z,28.80
2023-03-29T07:12:32.617Z,32.50
2023-03-29T07:14:37.729Z,24.30
2023-03-29T07:16:43.407Z,27.00
2023-03-29T07:18:58.809Z,27.70
2023-03-29T07:21:25.501Z,34.90
2023-03-29T07:23:29.125Z,33.70
2023-03-29T07:25:34.983Z,31.90
2023-03-29T07:27:41.044Z,36.70
2023-03-29T07:29:46.758Z,36.20
2023-03-29T07:31:52.802Z,31.40
2023-03-29T07:34:25.518Z,30.40
2023-03-29T07:36:28.593Z,34.50
2023-03-29T07:38:32.486Z,25.50
2023-03-29T07:40:41.263Z,24.50
2023-03-29T07:43:08.113Z,25.50
2023-03-29T07:45:13.832Z,29.00
2023-03-29T07:47:28.371Z,23.80
2023-03-29T07:49:31.445Z,37.10
2023-03-29T07:51:38.062Z,33.20
2023-03-29T07:53:47.369Z,31.70
2023-03-29T07:56:12.007Z,28.10
2023-03-29T07:58:24.027Z,26.10
2023-03-29T08:00:28.503Z,25.60
2023-03-29T08:02:52.647Z,21.70
2023-03-29T08:04:57.064Z,26.60
2023-03-29T08:07:21.870Z,20.60
2023-03-29T08:09:43.480Z,30.30
2023-03-29T08:11:47.682Z,28.20
2023-03-29T08:13:56.279Z,21.80
2023-03-29T08:16:17.714Z,24.90
2023-03-29T08:18:27.754Z,24.90
2023-03-29T08:20:33.302Z,23.00
2023-03-29T08:22:40.532Z,25.70
2023-03-29T08:24:45.064Z,29.10
2023-03-29T08:26:49.824Z,29.60
2023-03-29T08:28:59.792Z,27.40
2023-03-29T08:31:05.394Z,30.60
2023-03-29T08:33:16.098Z,25.00
2023-03-29T08:35:19.970Z,28.50
2023-03-29T08:37:34.362Z,25.60
2023-03-29T08:39:40.895Z,23.10
2023-03-29T08:42:17.065Z,33.20
2023-03-29T08:44:37.859Z,35.40
2023-03-29T08:47:15.390Z,28.60
2023-03-29T08:49:22.647Z,23.10
2023-03-29T08:51:33.807Z,28.40
2023-03-29T08:53:45.062Z,28.10
2023-03-29T08:55:56.666Z,31.80
2023-03-29T08:58:35.693Z,25.70
2023-03-29T09:00:44.577Z,19.70
2023-03-29T09:02:52.139Z,25.70
2023-03-29T09:05:04.685Z,36.30
2023-03-29T09:07:23.529Z,25.50
2023-03-29T09:09:34.737Z,23.90
2023-03-29T09:13:59.337Z,28.50
2023-03-29T09:16:34.291Z,35.20
2023-03-29T09:19:02.578Z,21.10
2023-03-29T09:21:31.100Z,29.80
2023-03-29T09:23:48.776Z,20.70
2023-03-29T09:26:34.825Z,28.90
2023-03-29T09:28:57.775Z,25.80
2023-03-29T09:31:12.299Z,28.80
2023-03-29T09:33:37.176Z,28.80
2023-03-29T09:35:57.075Z,26.40
2023-03-29T09:38:07.286Z,30.50
2023-03-29T09:40:17.286Z,31.00
2023-03-29T09:42:30.061Z,23.30
2023-03-29T09:44:41.526Z,24.90
2023-03-29T09:46:56.105Z,25.60
2023-03-29T09:49:02.031Z,25.50
2023-03-29T09:51:07.579Z,24.60
2023-03-29T09:53:15.758Z,29.10
2023-03-29T09:55:27.411Z,26.00
2023-03-29T09:57:35.454Z,36.40
2023-03-29T09:59:40.912Z,21.40
2023-03-29T10:01:49.847Z,22.80
2023-03-29T10:03:57.161Z,27.10
2023-03-29T10:06:03.499Z,29.90
2023-03-29T10:08:29.974Z,26.30
2023-03-29T10:10:36.790Z,26.10
2023-03-29T10:12:44.828Z,18.00
2023-03-29T10:14:54.890Z,21.30
2023-03-29T10:16:58.843Z,23.50
2023-03-29T10:19:33.843Z,23.90
2023-03-29T10:23:48.959Z,18.80
2023-03-29T10:25:53.154Z,22.40
2023-03-29T10:28:19.073Z,20.00
2023-03-29T10:30:25.488Z,17.60
2023-03-29T10:32:35.383Z,24.30
2023-03-29T10:34:40.842Z,22.80
2023-03-29T10:36:59.227Z,21.70
2023-03-29T10:39:05.890Z,23.70
2023-03-29T10:41:14.568Z,24.70
2023-03-29T10:43:26.160Z,27.40
2023-03-29T10:45:35.287Z,22.10
2023-03-29T10:47:38.572Z,25.60
2023-03-29T10:49:50.880Z,22.50
2023-03-29T10:51:55.373Z,21.30
2023-03-29T10:53:59.429Z,14.30
2023-03-29T10:56:08.209Z,20.60
2023-03-29T10:58:21.186Z,24.10
2023-03-29T11:00:33.443Z,14.90
2023-03-29T11:02:48.673Z,21.50
2023-03-29T11:05:09.065Z,19.20
2023-03-29T11:07:41.114Z,17.10
2023-03-29T11:10:15.449Z,18.90
2023-03-29T11:12:35.340Z,13.30
2023-03-29T11:14:53.144Z,17.40
2023-03-29T11:17:03.230Z,19.60
2023-03-29T11:19:13.468Z,18.10
2023-03-29T11:24:05.373Z,17.80
2023-03-29T11:26:20.746Z,17.70
2023-03-29T11:28:37.473Z,18.70
2023-03-29T11:30:46.028Z,17.50
2023-03-29T11:33:07.550Z,11.30
2023-03-29T11:35:29.849Z,23.90
2023-03-29T11:37:51.983Z,17.70
2023-03-29T11:40:05.873Z,20.70
2023-03-29T11:42:17.820Z,18.00
2023-03-29T11:44:23.896Z,20.40
2023-03-29T11:46:58.667Z,20.30
2023-03-29T11:49:32.946Z,19.00
2023-03-29T11:51:41.397Z,12.80
2023-03-29T11:53:53.297Z,15.60
2023-03-29T11:55:57.419Z,15.40
2023-03-29T11:58:07.805Z,23.60
2023-03-29T12:00:24.124Z,21.40
2023-03-29T12:02:39.815Z,18.90
2023-03-29T12:04:48.520Z,19.90
2023-03-29T12:07:12.642Z,12.60
2023-03-29T12:09:44.846Z,18.50
2023-03-29T12:12:01.804Z,18.90
2023-03-29T12:14:21.325Z,17.00
2023-03-29T12:16:25.008Z,20.90
2023-03-29T12:18:34.057Z,20.80
2023-03-29T12:20:39.924Z,22.30
2023-03-29T12:22:49.060Z,21.20
2023-03-29T12:24:54.005Z,22.50
2023-03-29T12:27:01.318Z,14.70
2023-03-29T12:29:43.870Z,19.20
2023-03-29T12:31:52.461Z,18.50
2023-03-29T12:34:24.545Z,16.20
2023-03-29T12:36:51.902Z,14.90
2023-03-29T12:39:21.581Z,18.80
2023-03-29T12:41:45.626Z,19.80
2023-03-29T12:44:27.215Z,13.70
2023-03-29T12:46:40.175Z,13.90
2023-03-29T12:48:46.061Z,15.90
2023-03-29T12:53:15.603Z,15.60
2023-03-29T12:55:33.441Z,15.80
2023-03-29T12:57:45.360Z,15.70
2023-03-29T12:59:52.083Z,15.10
2023-03-29T13:02:05.483Z,17.50
2023-03-29T13:04:19.558Z,20.90
2023-03-29T13:06:34.549Z,16.70
2023-03-29T13:08:48.479Z,16.30
2023-03-29T13:10:58.482Z,16.50
2023-03-29T13:13:14.626Z,17.00
2023-03-29T13:15:18.228Z,12.20
2023-03-29T13:17:40.234Z,18.40
2023-03-29T13:20:01.612Z,15.60
2023-03-29T13:22:25.451Z,18.60
2023-03-29T13:25:11.340Z,20.40
2023-03-29T13:27:42.298Z,19.80
2023-03-29T13:30:21.165Z,17.30
2023-03-29T13:32:50.727Z,20.10
2023-03-29T13:35:11.761Z,13.60
2023-03-29T13:37:33.632Z,14.30
2023-03-29T13:41:54.338Z,16.40
2023-03-29T13:43:57.879Z,13.30
2023-03-29T13:46:00.605Z,18.60
2023-03-29T13:48:24.961Z,17.80
2023-03-29T13:50:53.867Z,13.60
2023-03-29T13:53:06.233Z,14.30
2023-03-29T13:55:17.983Z,15.80
2023-03-29T13:57:25.455Z,17.10
2023-03-29T13:59:43.639Z,22.80
2023-03-29T14:01:53.378Z,15.70
2023-03-29T14:04:01.641Z,13.70
2023-03-29T14:06:08.360Z,12.70
2023-03-29T14:08:21.609Z,13.70
2023-03-29T14:10:33.475Z,16.70
2023-03-29T14:12:41.830Z,16.90
2023-03-29T14:14:56.032Z,15.00
2023-03-29T14:17:02.282Z,13.40
2023-03-29T14:19:14.154Z,18.00
2023-03-29T14:21:18.713Z,18.40
2023-03-29T14:23:27.814Z,13.80
2023-03-29T14:25:32.265Z,16.00
2023-03-29T14:27:45.070Z,13.10
2023-03-29T14:29:53.826Z,17.10
2023-03-29T14:32:09.315Z,12.10
2023-03-29T14:34:16.832Z,20.50
2023-03-29T14:36:21.972Z,14.20
2023-03-29T14:38:27.036Z,13.50
2023-03-29T14:40:33.377Z,10.30
2023-03-29T14:42:39.810Z,12.00
2023-03-29T14:44:44.321Z,11.90
2023-03-29T14:46:50.443Z,13.40
2023-03-29T14:48:56.728Z,12.50
2023-03-29T14:51:00.648Z,14.20
2023-03-29T14:53:04.054Z,19.20
2023-03-29T14:55:07.489Z,18.30
2023-03-29T14:57:20.730Z,10.80
2023-03-29T14:59:28.723Z,13.60
2023-03-29T15:01:31.922Z,9.50
2023-03-29T15:03:54.100Z,14.20
2023-03-29T15:06:03.752Z,13.40
2023-03-29T15:08:14.232Z,14.90
2023-03-29T15:10:19.300Z,15.00
2023-03-29T15:12:23.759Z,14.20
2023-03-29T15:14:31.478Z,19.10
2023-03-29T15:16:38.691Z,15.50
2023-03-29T15:18:44.170Z,14.80
2023-03-29T15:20:48.488Z,13.00
2023-03-29T15:23:18.519Z,26.00
2023-03-29T15:25:24.686Z,13.10
2023-03-29T15:27:39.603Z,15.70
2023-03-29T15:29:46.768Z,14.30
2023-03-29T15:31:58.966Z,13.60
2023-03-29T15:34:08.500Z,14.80
2023-03-29T15:36:17.140Z,18.80
2023-03-29T15:38:27.655Z,17.20
2023-03-29T15:40:37.654Z,17.50
2023-03-29T15:42:43.009Z,11.80
2023-03-29T15:44:48.519Z,12.70
2023-03-29T15:46:55.377Z,13.50
2023-03-29T15:48:59.391Z,11.90
2023-03-29T15:51:05.485Z,13.70
2023-03-29T15:53:15.577Z,22.00
2023-03-29T15:55:22.544Z,14.40
2023-03-29T15:57:28.391Z,12.00
2023-03-29T15:59:33.325Z,14.00
2023-03-29T16:01:38.914Z,12.70
2023-03-29T16:03:41.665Z,16.10
2023-03-29T16:05:45.624Z,12.00
2023-03-29T16:07:48.299Z,14.00
2023-03-29T16:09:51.026Z,13.50
2023-03-29T16:11:56.094Z,14.80
2023-03-29T16:13:59.574Z,15.80
2023-03-29T16:16:10.269Z,14.00
2023-03-29T16:18:15.180Z,9.60
2023-03-29T16:20:20.027Z,10.40
2023-03-29T16:22:24.432Z,12.30
2023-03-29T16:24:32.873Z,13.10
2023-03-29T16:26:36.440Z,13.10
2023-03-29T16:28:39.189Z,11.60
2023-03-29T16:30:42.842Z,11.50
2023-03-29T16:32:47.895Z,15.30
2023-03-29T16:34:53.591Z,10.20
2023-03-29T16:36:56.774Z,12.40
2023-03-29T16:39:00.104Z,12.40
2023-03-29T16:41:07.569Z,9.50
2023-03-29T16:43:16.005Z,12.00
2023-03-29T16:45:21.327Z,11.60
2023-03-29T16:47:26.073Z,11.30
2023-03-29T16:49:29.098Z,16.50
2023-03-29T16:51:32.316Z,15.70
2023-03-29T16:53:35.626Z,16.80
2023-03-29T16:55:38.218Z,12.50
2023-03-29T16:57:42.178Z,8.10
2023-03-29T16:59:47.539Z,16.70
2023-03-29T17:01:51.109Z,13.00
2023-03-29T17:03:54.646Z,14.40
2023-03-29T17:05:57.976Z,18.30
2023-03-29T17:08:00.549Z,15.90
2023-03-29T17:10:09.162Z,21.70
2023-03-29T17:12:12.168Z,21.90
2023-03-29T17:14:15.430Z,22.10
2023-03-29T17:16:19.826Z,17.80
2023-03-29T17:18:26.759Z,28.00
2023-03-29T17:20:31.635Z,39.80
2023-03-29T17:22:41.014Z,29.00
2023-03-29T17:24:43.622Z,22.60
2023-03-29T17:26:56.001Z,31.50
2023-03-29T17:29:01.089Z,30.00
2023-03-29T17:31:08.747Z,23.60
2023-03-29T17:33:13.448Z,24.40
2023-03-29T17:35:15.989Z,27.30
2023-03-29T17:37:21.224Z,21.40
2023-03-29T17:41:32.997Z,18.40
2023-03-29T17:43:35.705Z,19.50
2023-03-29T17:45:39.312Z,24.50
2023-03-29T17:47:42.819Z,23.50
2023-03-29T17:49:45.305Z,27.80
2023-03-29T17:51:49.774Z,33.50
2023-03-29T17:53:54.783Z,29.30
2023-03-29T17:55:57.365Z,26.90
2023-03-29T17:58:00.013Z,29.70
2023-03-29T18:00:02.558Z,23.00
2023-03-29T18:02:07.501Z,27.60
2023-03-29T18:04:11.718Z,22.20
2023-03-29T18:06:19.112Z,24.30
2023-03-29T18:08:21.567Z,23.10
2023-03-29T18:10:24.629Z,21.80
2023-03-29T18:12:33.223Z,18.00
2023-03-29T18:14:37.006Z,19.00
2023-03-29T18:16:42.837Z,24.60
2023-03-29T18:18:46.514Z,23.50
2023-03-29T18:20:49.454Z,24.70
2023-03-29T18:22:51.931Z,18.60
2023-03-29T18:24:55.435Z,21.90
2023-03-29T18:27:01.258Z,21.40
2023-03-29T18:29:06.076Z,28.50
2023-03-29T18:31:12.114Z,19.30
2023-03-29T18:33:17.252Z,26.10
2023-03-29T18:35:25.302Z,32.30
2023-03-29T18:37:28.293Z,37.20
2023-03-29T18:39:32.106Z,25.20
2023-03-29T18:41:37.184Z,21.10
2023-03-29T18:43:40.893Z,17.40
2023-03-29T18:45:45.705Z,23.50
2023-03-29T18:47:50.649Z,22.00
2023-03-29T18:49:56.358Z,19.00
2023-03-29T18:51:59.201Z,17.60
2023-03-29T18:54:01.881Z,19.70
2023-03-29T18:56:07.123Z,28.20
2023-03-29T18:58:14.725Z,27.00
2023-03-29T19:00:18.095Z,26.50
2023-03-29T19:02:22.973Z,33.70
2023-03-29T19:04:27.529Z,33.60
2023-03-29T19:06:31.630Z,31.30
2023-03-29T19:08:41.621Z,33.00
2023-03-29T19:10:45.511Z,26.20
2023-03-29T19:12:57.056Z,29.60
2023-03-29T19:15:01.887Z,43.70
2023-03-29T19:17:06.642Z,29.20
2023-03-29T19:19:10.845Z,28.50
2023-03-29T19:21:16.856Z,24.90
2023-03-29T19:23:28.876Z,27.20
2023-03-29T19:25:31.776Z,25.00
2023-03-29T19:27:35.804Z,28.90
2023-03-29T19:29:38.946Z,26.30
2023-03-29T19:31:42.074Z,40.40
2023-03-29T19:33:51.323Z,35.50
2023-03-29T19:35:56.679Z,24.30
2023-03-29T19:38:01.362Z,23.00
2023-03-29T19:40:06.765Z,24.30
2023-03-29T19:42:09.864Z,18.90
2023-03-29T19:44:13.744Z,22.50
2023-03-29T19:46:17.744Z,28.50
2023-03-29T19:48:23.959Z,26.90
2023-03-29T19:50:29.818Z,27.00
2023-03-29T19:52:33.948Z,26.10
2023-03-29T19:54:42.523Z,37.30
2023-03-29T19:56:46.306Z,36.40
2023-03-29T19:59:01.123Z,33.80
2023-03-29T20:01:08.355Z,37.40
2023-03-29T20:03:13.245Z,31.50
2023-03-29T20:05:21.321Z,36.50
2023-03-29T20:07:27.620Z,36.00
2023-03-29T20:09:31.315Z,28.50
2023-03-29T20:11:34.931Z,31.70
2023-03-29T20:13:43.264Z,31.40
2023-03-29T20:15:47.147Z,31.40
2023-03-29T20:17:54.853Z,38.10
2023-03-29T20:19:59.146Z,37.10
2023-03-29T20:22:03.775Z,34.20
2023-03-29T20:24:08.620Z,34.10
2023-03-29T20:26:14.188Z,32.40
2023-03-29T20:28:20.648Z,55.90
2023-03-29T20:30:25.237Z,56.50
2023-03-29T20:32:30.410Z,46.30
2023-03-29T20:34:34.163Z,48.20
2023-03-29T20:36:38.973Z,24.40
2023-03-29T20:38:43.485Z,21.40
2023-03-29T20:40:46.071Z,19.70
2023-03-29T20:42:49.367Z,24.00
2023-03-29T20:44:53.740Z,17.00
2023-03-29T20:47:05.387Z,20.10
2023-03-29T20:49:08.999Z,21.70
2023-03-29T20:51:16.030Z,29.00
2023-03-29T20:53:20.739Z,21.50
2023-03-29T20:55:25.169Z,22.80
2023-03-29T20:57:30.397Z,30.20
2023-03-29T20:59:34.811Z,25.00
2023-03-29T21:01:40.551Z,25.90
2023-03-29T21:03:46.400Z,16.90
2023-03-29T21:05:57.274Z,20.40
2023-03-29T21:08:02.450Z,32.00
2023-03-29T21:10:07.047Z,45.40
2023-03-29T21:12:10.056Z,31.80
2023-03-29T21:14:23.631Z,22.80
2023-03-29T21:16:31.312Z,17.60
2023-03-29T21:18:37.086Z,19.80
2023-03-29T21:20:41.930Z,18.00
2023-03-29T21:22:44.512Z,13.40
2023-03-29T21:24:50.553Z,14.00
2023-03-29T21:26:54.330Z,19.80
2023-03-29T21:28:57.939Z,17.60
2023-03-29T21:31:05.539Z,15.00
2023-03-29T21:33:09.566Z,14.70
2023-03-29T21:35:13.291Z,16.30
2023-03-29T21:37:19.640Z,13.90
2023-03-29T21:39:26.107Z,16.00
2023-03-29T21:41:29.894Z,17.30
2023-03-29T21:43:32.696Z,15.80
2023-03-29T21:45:36.407Z,17.60
2023-03-29T21:47:39.751Z,13.20
2023-03-29T21:49:43.170Z,18.70
2023-03-29T21:51:46.458Z,14.40
2023-03-29T21:53:48.974Z,19.80
2023-03-29T21:55:52.781Z,14.10
2023-03-29T21:57:55.632Z,16.80
2023-03-29T21:59:59.143Z,14.40
2023-03-29T22:02:02.903Z,17.00
2023-03-29T22:04:06.920Z,14.60
2023-03-29T22:06:13.683Z,13.20
2023-03-29T22:08:19.266Z,15.60
2023-03-29T22:10:25.851Z,11.00
2023-03-29T22:12:37.971Z,22.30
2023-03-29T22:14:41.352Z,28.80
2023-03-29T22:16:49.999Z,28.90
2023-03-29T22:18:54.335Z,34.20
2023-03-29T22:21:01.519Z,36.60
2023-03-29T22:23:07.349Z,31.90
2023-03-29T22:25:11.818Z,33.50
2023-03-29T22:27:14.359Z,36.30
2023-03-29T22:29:17.189Z,30.70
2023-03-29T22:31:25.984Z,32.80
2023-03-29T22:33:31.058Z,29.20
2023-03-29T22:35:35.977Z,38.00
2023-03-29T22:37:43.516Z,52.10
2023-03-29T22:39:49.520Z,39.00
2023-03-29T22:41:52.016Z,40.90
2023-03-29T22:43:57.732Z,35.70
2023-03-29T22:46:01.100Z,34.90
2023-03-29T22:48:05.859Z,33.80
2023-03-29T22:50:12.280Z,29.60
2023-03-29T22:52:15.586Z,30.50
2023-03-29T22:54:18.512Z,50.10
2023-03-29T22:56:22.144Z,39.60
2023-03-29T22:58:25.323Z,34.30
2023-03-29T23:00:35.531Z,39.80
2023-03-29T23:02:38.165Z,40.40
2023-03-29T23:04:42.443Z,35.70
2023-03-29T23:06:56.414Z,37.30
2023-03-29T23:08:58.965Z,37.70
2023-03-29T23:11:07.138Z,31.30
2023-03-29T23:13:10.382Z,25.20
2023-03-29T23:15:14.557Z,28.20
2023-03-29T23:17:19.907Z,28.40
2023-03-29T23:19:27.483Z,26.50
2023-03-29T23:21:29.955Z,31.10
2023-03-29T23:23:33.882Z,26.30
2023-03-29T23:25:38.328Z,27.60
2023-03-29T23:27:41.304Z,31.70
2023-03-29T23:29:47.645Z,29.00
2023-03-29T23:31:50.208Z,33.50
2023-03-29T23:33:53.185Z,25.80
2023-03-29T23:35:57.910Z,25.60
2023-03-29T23:38:00.823Z,30.60
2023-03-29T23:40:14.140Z,27.80
2023-03-29T23:42:18.340Z,26.70
2023-03-29T23:44:20.891Z,27.00
2023-03-29T23:46:23.642Z,31.10
2023-03-29T23:48:27.317Z,34.20
2023-03-29T23:50:33.143Z,30.30
2023-03-29T23:52:37.851Z,25.90
2023-03-29T23:54:40.389Z,30.80
2023-03-29T23:56:44.089Z,28.10
2023-03-29T23:58:47.289Z,27.10
